Airport Name : Philadelphia Intl

Other Name : Philadelphia

ICAO : KPHL

IATA : PHL

FAA : PHL

Latitude : 39.871944

Longitude : -75.241139

Country : United States

Local Date and Time : 15 Jan 2021 10:30

 

TAF (Terminal Aerodrome Forecast)

KPHL 151445Z 1515/1618 09009KT 6SM BR SCT040 BKN250 TEMPO 1515/1516 4SM BR FM152200 10011KT P6SM OVC025 FM160100 11010KT 5SM -RADZ BR OVC020 FM160400 12007KT 2SM -RA BR OVC007 FM160600 VRB06KT 2SM -RA BR OVC004 FM161200 27009KT P6SM BKN015 FM161500 29010KT P6SM SCT040

 

METAR (METeorological Aerodrome Report)

KPHL 151454Z 06009KT 4SM BR FEW110 SCT200 OVC240 04/03 A2996 RMK AO2 SLP145 T00440028 51011

KPHL 151354Z 07009KT 4SM BR FEW110 SCT200 OVC250 03/02 A2995 RMK AO2 SLP141 T00280017

KPHL 151254Z 07007KT 4SM BR SCT110 OVC250 01/00 A2995 RMK AO2 SLP141 T00110000

KPHL 151239Z 08005KT 4SM BR SCT130 OVC250 02/00 A2995 RMK AO2 T00170000

KPHL 151205Z 07005KT 6SM BR SCT130 OVC250 01/M01 A2993 RMK AO2 T00111006

KPHL 151154Z 07005KT 7SM SCT130 OVC250 01/M01 A2993 RMK AO2 SLP135 T00111006 10033 20000 55005

To Charter a Jet Click here.